createdAt,value
2023-04-16T00:02:47.055Z,97933.27
2023-04-16T00:05:59.349Z,97932.89
2023-04-16T00:09:18.921Z,97937.55
2023-04-16T00:12:28.511Z,97936.80
2023-04-16T00:15:43.232Z,97939.48
2023-04-16T00:19:11.080Z,97940.48
2023-04-16T00:22:24.202Z,97946.64
2023-04-16T00:25:37.071Z,97949.52
2023-04-16T00:28:56.329Z,97953.12
2023-04-16T00:32:15.986Z,97955.50
2023-04-16T00:35:26.849Z,97971.61
2023-04-16T00:38:46.721Z,97971.80
2023-04-16T00:41:37.168Z,97978.70
2023-04-16T00:44:50.340Z,97984.41
2023-04-16T00:48:09.658Z,97987.38
2023-04-16T00:51:20.536Z,97994.30
2023-04-16T00:54:32.716Z,97997.48
2023-04-16T00:57:44.304Z,97999.28
2023-04-16T01:00:56.584Z,98000.23
2023-04-16T01:04:08.779Z,98003.08
2023-04-16T01:07:26.756Z,98005.13
2023-04-16T01:10:41.508Z,98008.90
2023-04-16T01:13:53.097Z,97999.61
2023-04-16T01:17:05.786Z,98003.07
2023-04-16T01:20:19.044Z,97998.17
2023-04-16T01:23:39.291Z,97995.55
2023-04-16T01:26:50.330Z,98003.52
2023-04-16T01:30:10.031Z,98002.43
2023-04-16T01:33:29.925Z,98001.99
2023-04-16T01:36:28.706Z,98002.58
2023-04-16T01:39:33.222Z,97995.77
2023-04-16T01:42:47.672Z,97995.36
2023-04-16T01:46:07.438Z,97988.48
2023-04-16T01:49:19.176Z,97990.89
2023-04-16T01:52:39.467Z,97988.31
2023-04-16T01:55:58.890Z,97985.25
2023-04-16T01:59:11.497Z,97990.60
2023-04-16T02:02:26.451Z,97991.60
2023-04-16T02:05:38.155Z,97995.64
2023-04-16T02:08:54.705Z,97999.11
2023-04-16T02:12:07.821Z,97998.55
2023-04-16T02:15:20.664Z,98000.36
2023-04-16T02:18:31.557Z,98004.48
2023-04-16T02:21:42.678Z,98011.98
2023-04-16T02:24:54.568Z,98010.79
2023-04-16T02:27:58.142Z,98013.95
2023-04-16T02:31:18.361Z,98016.41
2023-04-16T02:34:29.739Z,98021.71
2023-04-16T02:37:55.961Z,98020.23
2023-04-16T02:41:08.881Z,98025.02
2023-04-16T02:44:21.166Z,98028.32
2023-04-16T02:47:34.014Z,98031.98
2023-04-16T02:50:46.407Z,98041.44
2023-04-16T02:54:06.663Z,98041.28
2023-04-16T02:57:19.191Z,98041.42
2023-04-16T03:00:39.552Z,98048.60
2023-04-16T03:03:59.652Z,98048.09
2023-04-16T03:07:19.906Z,98049.48
2023-04-16T03:10:41.321Z,98052.64
2023-04-16T03:13:52.144Z,98055.52
2023-04-16T03:17:12.836Z,98057.13
2023-04-16T03:20:33.030Z,98063.06
2023-04-16T03:23:45.886Z,98067.21
2023-04-16T03:26:57.895Z,98068.55
2023-04-16T03:30:12.477Z,98077.25
2023-04-16T03:33:31.669Z,98079.63
2023-04-16T03:36:45.313Z,98082.95
2023-04-16T03:39:56.101Z,98085.45
2023-04-16T03:43:17.107Z,98086.59
2023-04-16T03:46:29.143Z,98086.15
2023-04-16T03:49:42.028Z,98089.23
2023-04-16T03:52:54.617Z,98092.98
2023-04-16T03:56:05.904Z,98096.41
2023-04-16T03:59:25.160Z,98098.52
2023-04-16T04:02:46.022Z,98103.12
2023-04-16T04:05:58.635Z,98107.97
2023-04-16T04:09:11.217Z,98113.41
2023-04-16T04:12:22.212Z,98124.66
2023-04-16T04:15:34.707Z,98125.66
2023-04-16T04:18:55.031Z,98132.95
2023-04-16T04:22:22.761Z,98139.39
2023-04-16T04:25:45.019Z,98144.36
2023-04-16T04:29:05.893Z,98151.41
2023-04-16T04:32:18.546Z,98155.44
2023-04-16T04:35:24.044Z,98161.13
2023-04-16T04:38:36.616Z,98160.14
2023-04-16T04:41:27.553Z,98158.80
2023-04-16T04:44:45.911Z,98156.03
2023-04-16T04:47:59.430Z,98150.21
2023-04-16T04:51:18.749Z,98151.86
2023-04-16T04:54:38.988Z,98157.88
2023-04-16T04:57:58.225Z,98162.39
2023-04-16T05:01:18.452Z,98163.60
2023-04-16T05:04:33.194Z,98165.62
2023-04-16T05:07:47.833Z,98177.56
2023-04-16T05:11:00.303Z,98182.35
2023-04-16T05:14:11.456Z,98184.88
2023-04-16T05:17:22.399Z,98189.45
2023-04-16T05:20:41.721Z,98194.19
2023-04-16T05:23:53.977Z,98193.60
2023-04-16T05:27:06.946Z,98196.08
2023-04-16T05:30:19.939Z,98200.15
2023-04-16T05:33:32.858Z,98194.46
2023-04-16T05:36:46.515Z,98190.95
2023-04-16T05:39:57.616Z,98189.82
2023-04-16T05:43:20.371Z,98190.20
2023-04-16T05:46:39.713Z,98196.63
2023-04-16T05:49:51.973Z,98201.37
2023-04-16T05:53:03.975Z,98206.80
2023-04-16T05:56:18.181Z,98205.34
2023-04-16T05:59:30.029Z,98211.85
2023-04-16T06:02:43.337Z,98211.65
2023-04-16T06:05:57.150Z,98210.55
2023-04-16T06:09:09.346Z,98213.19
2023-04-16T06:12:22.660Z,98213.13
2023-04-16T06:15:37.925Z,98212.77
2023-04-16T06:18:41.694Z,98216.91
2023-04-16T06:21:52.495Z,98221.25
2023-04-16T06:25:03.367Z,98229.36
2023-04-16T06:28:14.519Z,98231.66
2023-04-16T06:31:25.695Z,98233.77
2023-04-16T06:34:40.595Z,98235.20
2023-04-16T06:37:55.795Z,98239.09
2023-04-16T06:41:08.212Z,98243.27
2023-04-16T06:44:21.400Z,98242.85
2023-04-16T06:47:41.056Z,98242.25
2023-04-16T06:50:52.186Z,98238.86
2023-04-16T06:54:11.424Z,98238.86
2023-04-16T06:57:23.756Z,98238.82
2023-04-16T07:00:36.847Z,98238.52
2023-04-16T07:03:48.564Z,98238.60
2023-04-16T07:07:01.522Z,98245.83
2023-04-16T07:10:13.286Z,98248.32
2023-04-16T07:13:32.527Z,98252.75
2023-04-16T07:16:45.947Z,98259.66
2023-04-16T07:20:13.635Z,98263.68
2023-04-16T07:23:17.012Z,98263.59
2023-04-16T07:26:29.243Z,98271.05
2023-04-16T07:29:42.717Z,98272.39
2023-04-16T07:33:11.405Z,98271.25
2023-04-16T07:36:22.298Z,98270.52
2023-04-16T07:39:41.608Z,98276.85
2023-04-16T07:43:10.256Z,98283.32
2023-04-16T07:46:21.262Z,98290.92
2023-04-16T07:49:32.117Z,98294.21
2023-04-16T07:52:44.353Z,98297.96
2023-04-16T07:56:05.823Z,98299.56
2023-04-16T07:59:23.684Z,98300.73
2023-04-16T08:02:38.255Z,98302.52
2023-04-16T08:06:01.041Z,98308.39
2023-04-16T08:09:16.347Z,98307.47
2023-04-16T08:12:28.751Z,98306.21
2023-04-16T08:15:35.469Z,98314.27
2023-04-16T08:18:39.582Z,98315.13
2023-04-16T08:21:52.261Z,98315.45
2023-04-16T08:25:12.691Z,98314.52
2023-04-16T08:28:24.104Z,98315.10
2023-04-16T08:31:36.996Z,98314.53
2023-04-16T08:34:50.193Z,98315.77
2023-04-16T08:38:02.686Z,98316.82
2023-04-16T08:41:22.259Z,98321.95
2023-04-16T08:44:34.017Z,98322.31
2023-04-16T08:47:45.500Z,98322.06
2023-04-16T08:50:59.193Z,98326.83
2023-04-16T08:54:01.414Z,98328.20
2023-04-16T08:57:12.863Z,98326.80
2023-04-16T09:00:24.776Z,98325.70
2023-04-16T09:03:44.309Z,98327.71
2023-04-16T09:06:47.003Z,98328.33
2023-04-16T09:10:02.885Z,98331.56
2023-04-16T09:13:22.194Z,98320.69
2023-04-16T09:16:39.175Z,98324.27
2023-04-16T09:19:51.006Z,98328.80
2023-04-16T09:23:03.975Z,98325.17
2023-04-16T09:26:29.481Z,98329.75
2023-04-16T09:29:40.296Z,98331.80
2023-04-16T09:32:55.403Z,98331.23
2023-04-16T09:36:17.199Z,98328.90
2023-04-16T09:39:32.746Z,98326.88
2023-04-16T09:42:49.241Z,98327.72
2023-04-16T09:46:00.658Z,98328.31
2023-04-16T09:49:13.989Z,98329.02
2023-04-16T09:52:27.723Z,98327.79
2023-04-16T09:55:39.205Z,98330.60
2023-04-16T09:58:47.091Z,98333.58
2023-04-16T10:02:16.600Z,98332.80
2023-04-16T10:05:24.321Z,98339.56
2023-04-16T10:08:35.283Z,98334.58
2023-04-16T10:11:46.224Z,98328.08
2023-04-16T10:15:06.838Z,98329.92
2023-04-16T10:18:18.025Z,98323.92
2023-04-16T10:21:30.454Z,98328.02
2023-04-16T10:24:43.223Z,98324.42
2023-04-16T10:27:45.704Z,98327.66
2023-04-16T10:31:05.173Z,98333.16
2023-04-16T10:34:18.054Z,98332.98
2023-04-16T10:37:32.845Z,98330.86
2023-04-16T10:40:50.024Z,98331.35
2023-04-16T10:44:11.059Z,98334.45
2023-04-16T10:47:08.072Z,98338.53
2023-04-16T10:50:22.047Z,98338.65
2023-04-16T10:53:36.950Z,98331.20
2023-04-16T10:56:25.460Z,98328.58
2023-04-16T10:59:43.695Z,98331.11
2023-04-16T11:03:00.746Z,98337.83
2023-04-16T11:06:12.745Z,98335.81
2023-04-16T11:09:32.092Z,98336.45
2023-04-16T11:12:35.964Z,98337.39
2023-04-16T11:15:29.416Z,98338.57
2023-04-16T11:18:51.017Z,98340.53
2023-04-16T11:22:02.610Z,98339.90
2023-04-16T11:25:19.489Z,98345.53
2023-04-16T11:28:35.157Z,98350.56
2023-04-16T11:31:54.567Z,98350.89
2023-04-16T11:35:08.616Z,98353.54
2023-04-16T11:38:29.018Z,98349.20
2023-04-16T11:41:47.104Z,98348.59
2023-04-16T11:45:01.749Z,98351.47
2023-04-16T11:48:17.014Z,98346.29
2023-04-16T11:51:27.879Z,98346.86
2023-04-16T11:54:59.897Z,98340.19
2023-04-16T11:58:13.519Z,98341.96
2023-04-16T12:01:36.987Z,98340.27
2023-04-16T12:04:56.239Z,98337.27
2023-04-16T12:08:03.521Z,98343.76
2023-04-16T12:11:29.670Z,98333.00
2023-04-16T12:14:43.727Z,98332.14
2023-04-16T12:18:03.594Z,98331.06
2023-04-16T12:21:17.451Z,98330.17
2023-04-16T12:24:28.850Z,98327.08
2023-04-16T12:27:56.643Z,98326.42
2023-04-16T12:31:23.604Z,98324.77
2023-04-16T12:34:48.702Z,98327.30
2023-04-16T12:38:01.550Z,98326.88
2023-04-16T12:41:15.531Z,98322.58
2023-04-16T12:44:29.804Z,98325.92
2023-04-16T12:47:41.776Z,98321.12
2023-04-16T12:50:53.439Z,98319.45
2023-04-16T12:54:04.318Z,98316.96
2023-04-16T12:57:21.286Z,98319.91
2023-04-16T13:00:50.578Z,98318.02
2023-04-16T13:04:10.265Z,98316.00
2023-04-16T13:07:26.838Z,98311.91
2023-04-16T13:10:30.544Z,98312.53
2023-04-16T13:13:41.416Z,98313.59
2023-04-16T13:16:52.370Z,98316.16
2023-04-16T13:20:21.470Z,98310.77
2023-04-16T13:23:51.001Z,98309.18
2023-04-16T13:27:15.254Z,98312.41
2023-04-16T13:30:29.577Z,98312.44
2023-04-16T13:33:49.185Z,98311.36
2023-04-16T13:37:01.217Z,98305.82
2023-04-16T13:40:15.803Z,98302.61
2023-04-16T13:43:35.791Z,98303.74
2023-04-16T13:46:46.655Z,98310.19
2023-04-16T13:49:57.569Z,98307.61
2023-04-16T13:53:16.860Z,98306.77
2023-04-16T13:56:16.806Z,98307.08
2023-04-16T13:59:29.778Z,98302.09
2023-04-16T14:02:51.805Z,98304.81
2023-04-16T14:06:11.422Z,98303.98
2023-04-16T14:09:25.344Z,98308.34
2023-04-16T14:12:36.162Z,98305.09
2023-04-16T14:15:56.973Z,98305.66
2023-04-16T14:19:16.315Z,98303.69
2023-04-16T14:22:15.091Z,98305.65
2023-04-16T14:25:34.307Z,98308.92
2023-04-16T14:28:48.816Z,98304.74
2023-04-16T14:32:16.653Z,98305.19
2023-04-16T14:35:43.549Z,98304.96
2023-04-16T14:38:58.625Z,98306.36
2023-04-16T14:42:10.591Z,98303.56
2023-04-16T14:45:23.181Z,98300.16
2023-04-16T14:48:43.518Z,98306.80
2023-04-16T14:51:54.907Z,98305.11
2023-04-16T14:54:57.412Z,98306.17
2023-04-16T14:58:20.913Z,98312.88
2023-04-16T15:01:32.740Z,98310.14
2023-04-16T15:04:45.422Z,98313.92
2023-04-16T15:08:00.101Z,98311.14
2023-04-16T15:11:13.743Z,98310.11
2023-04-16T15:14:36.369Z,98309.16
2023-04-16T15:17:57.105Z,98306.52
2023-04-16T15:21:09.918Z,98307.38
2023-04-16T15:24:25.479Z,98311.73
2023-04-16T15:27:36.954Z,98312.48
2023-04-16T15:30:34.372Z,98310.70
2023-04-16T15:33:45.267Z,98314.43
2023-04-16T15:36:59.342Z,98314.84
2023-04-16T15:40:13.897Z,98312.36
2023-04-16T15:43:34.884Z,98314.36
2023-04-16T15:46:47.794Z,98313.30
2023-04-16T15:50:01.071Z,98314.74
2023-04-16T15:53:14.009Z,98312.95
2023-04-16T15:56:33.925Z,98314.64
2023-04-16T15:59:55.840Z,98313.26
2023-04-16T16:03:12.460Z,98315.65
2023-04-16T16:06:24.397Z,98325.46
2023-04-16T16:09:46.912Z,98327.16
2023-04-16T16:12:48.964Z,98331.23
2023-04-16T16:16:09.360Z,98336.34
2023-04-16T16:19:28.629Z,98334.96
2023-04-16T16:22:42.293Z,98340.77
2023-04-16T16:25:53.814Z,98341.09
2023-04-16T16:29:06.869Z,98341.14
2023-04-16T16:32:13.887Z,98343.06
2023-04-16T16:35:33.542Z,98347.77
2023-04-16T16:38:46.121Z,98350.36
2023-04-16T16:42:00.248Z,98348.74
2023-04-16T16:45:14.338Z,98348.67
2023-04-16T16:48:25.395Z,98351.80
2023-04-16T16:51:36.223Z,98351.37
2023-04-16T16:54:51.553Z,98353.09
2023-04-16T16:58:06.153Z,98357.98
2023-04-16T17:01:23.484Z,98361.55
2023-04-16T17:04:35.906Z,98362.77
2023-04-16T17:07:39.385Z,98363.27
2023-04-16T17:10:50.991Z,98368.09
2023-04-16T17:14:11.184Z,98369.84
2023-04-16T17:17:25.780Z,98374.52
2023-04-16T17:20:36.710Z,98379.17
2023-04-16T17:23:56.005Z,98389.00
2023-04-16T17:27:23.796Z,98393.29
2023-04-16T17:30:46.356Z,98395.34
2023-04-16T17:33:58.137Z,98398.10
2023-04-16T17:37:09.566Z,98395.17
2023-04-16T17:40:20.466Z,98401.14
2023-04-16T17:43:31.279Z,98407.48
2023-04-16T17:46:42.599Z,98406.89
2023-04-16T17:49:54.435Z,98407.63
2023-04-16T17:53:02.611Z,98410.98
2023-04-16T17:56:22.491Z,98412.09
2023-04-16T17:59:33.632Z,98411.05
2023-04-16T18:02:45.524Z,98419.29
2023-04-16T18:05:56.600Z,98423.23
2023-04-16T18:09:08.875Z,98423.06
2023-04-16T18:12:21.891Z,98425.55
2023-04-16T18:15:38.420Z,98427.30
2023-04-16T18:19:06.197Z,98426.85
2023-04-16T18:22:21.719Z,98427.48
2023-04-16T18:25:35.019Z,98432.38
2023-04-16T18:28:49.795Z,98431.55
2023-04-16T18:32:04.257Z,98440.42
2023-04-16T18:35:16.005Z,98442.95
2023-04-16T18:38:32.686Z,98443.92
2023-04-16T18:41:40.241Z,98449.79
2023-04-16T18:44:54.162Z,98447.66
2023-04-16T18:48:05.149Z,98450.83
2023-04-16T18:51:08.955Z,98452.52
2023-04-16T18:54:20.824Z,98453.85
2023-04-16T18:57:38.863Z,98451.55
2023-04-16T19:00:58.738Z,98452.40
2023-04-16T19:04:18.141Z,98451.17
2023-04-16T19:07:23.701Z,98449.97
2023-04-16T19:10:27.450Z,98451.75
2023-04-16T19:13:38.697Z,98456.16
2023-04-16T19:16:52.292Z,98457.81
2023-04-16T19:20:03.216Z,98457.80
2023-04-16T19:23:16.127Z,98457.63
2023-04-16T19:26:29.788Z,98454.54
2023-04-16T19:29:41.196Z,98453.60
2023-04-16T19:32:55.456Z,98453.67
2023-04-16T19:36:07.656Z,98455.11
2023-04-16T19:39:18.815Z,98455.80
2023-04-16T19:42:29.672Z,98451.61
2023-04-16T19:45:37.461Z,98450.69
2023-04-16T19:48:49.096Z,98445.59
2023-04-16T19:52:03.432Z,98445.27
2023-04-16T19:55:22.543Z,98448.19
2023-04-16T19:58:30.056Z,98448.36
2023-04-16T20:01:44.250Z,98448.20
2023-04-16T20:05:11.964Z,98449.90
2023-04-16T20:08:32.491Z,98448.95
2023-04-16T20:11:46.106Z,98445.89
2023-04-16T20:14:57.502Z,98444.23
2023-04-16T20:18:26.450Z,98444.23
2023-04-16T20:21:40.996Z,98445.11
2023-04-16T20:28:33.174Z,98441.09
2023-04-16T20:31:52.712Z,98444.33
2023-04-16T20:35:05.115Z,98444.20
2023-04-16T20:38:18.276Z,98443.52
2023-04-16T20:41:33.311Z,98439.30
2023-04-16T20:44:46.522Z,98438.60
2023-04-16T20:48:00.820Z,98436.03
2023-04-16T20:51:03.383Z,98437.09
2023-04-16T20:54:14.190Z,98433.58
2023-04-16T20:57:41.729Z,98433.69
2023-04-16T21:00:53.762Z,98433.92
2023-04-16T21:04:04.718Z,98431.63
2023-04-16T21:07:25.128Z,98432.77
2023-04-16T21:10:36.209Z,98434.41
2023-04-16T21:13:49.340Z,98438.05
2023-04-16T21:17:00.109Z,98439.73
2023-04-16T21:20:13.437Z,98433.93
2023-04-16T21:23:24.406Z,98429.36
2023-04-16T21:26:37.306Z,98433.48
2023-04-16T21:29:51.313Z,98435.49
2023-04-16T21:33:11.583Z,98437.14
2023-04-16T21:36:32.289Z,98435.71
2023-04-16T21:39:45.077Z,98430.50
2023-04-16T21:42:57.280Z,98432.71
2023-04-16T21:46:16.471Z,98431.39
2023-04-16T21:49:27.374Z,98432.77
2023-04-16T21:52:38.301Z,98432.74
2023-04-16T21:56:01.007Z,98430.66
2023-04-16T21:59:21.442Z,98436.01
2023-04-16T22:02:32.706Z,98436.38
2023-04-16T22:05:43.682Z,98436.77
2023-04-16T22:09:03.103Z,98429.95
2023-04-16T22:12:06.629Z,98427.54
2023-04-16T22:15:28.542Z,98429.51
2023-04-16T22:18:48.883Z,98427.84
2023-04-16T22:21:53.569Z,98426.10
2023-04-16T22:25:05.068Z,98427.04
2023-04-16T22:28:16.805Z,98432.27
2023-04-16T22:31:28.163Z,98434.30
2023-04-16T22:34:40.920Z,98434.27
2023-04-16T22:37:52.731Z,98432.35
2023-04-16T22:41:03.474Z,98437.55
2023-04-16T22:44:14.527Z,98438.59
2023-04-16T22:47:33.771Z,98439.58
2023-04-16T22:50:58.156Z,98439.35
2023-04-16T22:54:14.622Z,98441.41
2023-04-16T22:57:25.655Z,98433.53
2023-04-16T23:00:40.399Z,98434.09
2023-04-16T23:03:55.118Z,98436.41
2023-04-16T23:07:14.353Z,98432.93
2023-04-16T23:10:26.154Z,98433.07
2023-04-16T23:13:39.040Z,98432.64
2023-04-16T23:16:50.944Z,98431.42
2023-04-16T23:20:04.091Z,98428.21
2023-04-16T23:23:16.039Z,98428.36
2023-04-16T23:26:29.047Z,98428.52
2023-04-16T23:29:42.041Z,98418.31
2023-04-16T23:32:52.837Z,98415.94
2023-04-16T23:36:13.422Z,98416.92
2023-04-16T23:39:24.552Z,98424.14
2023-04-16T23:42:36.688Z,98430.06
2023-04-16T23:45:52.058Z,98432.19
2023-04-16T23:49:03.888Z,98429.08
2023-04-16T23:52:15.412Z,98435.06
2023-04-16T23:55:27.221Z,98433.50
2023-04-16T23:58:47.443Z,98430.17
